Harris, New York
Current Conditions -  °F | °C
As of 5:55 PM on Tuesday 27 Jan 2015 (Local Time) from KMSV Reporting Station
Scattered Clouds Scattered Clouds  
Wind Chill: -19°   Ceiling: Unl
Heat Index: -10°   Visibility: 10mi
Dew Point: -13°   Wind: 17mph
Humidity: 79%   Direction: 310°NW
Pressure: 29.7"   Gusts: 26mph
Location:  41.71°N, 74.73°W
Report Text: KMSV 272255Z AUTO 31015G23KT 10SM SCT021 M10/M13 A2970 RMK AO1
Loading
Personal Weather Stations






























Interactive Weather Map New forecast layout! Learn more

10-Day Weather Forecast

Advertisements
Track Severe Weather on mobile